sensor_id;sensor_type;location;lat;lon;timestamp;P1;durP1;ratioP1;P2;durP2;ratioP2
32611;SDS011;19030;49.478;8.986;2023-01-26T00:01:22;28.08;;;12.35;;
32611;SDS011;19030;49.478;8.986;2023-01-26T00:03:23;27.45;;;12.20;;
32611;SDS011;19030;49.478;8.986;2023-01-26T00:05:24;26.60;;;12.90;;
32611;SDS011;19030;49.478;8.986;2023-01-26T00:07:27;24.60;;;11.02;;
32611;SDS011;19030;49.478;8.986;2023-01-26T00:09:27;26.17;;;11.82;;
32611;SDS011;19030;49.478;8.986;2023-01-26T00:11:28;25.90;;;13.10;;
32611;SDS011;19030;49.478;8.986;2023-01-26T00:13:29;29.60;;;12.63;;
32611;SDS011;19030;49.478;8.986;2023-01-26T00:15:31;24.58;;;11.73;;
32611;SDS011;19030;49.478;8.986;2023-01-26T00:17:32;24.83;;;12.02;;
32611;SDS011;19030;49.478;8.986;2023-01-26T00:19:32;26.65;;;12.65;;
32611;SDS011;19030;49.478;8.986;2023-01-26T00:21:33;27.75;;;12.32;;
32611;SDS011;19030;49.478;8.986;2023-01-26T00:23:34;26.75;;;12.90;;
32611;SDS011;19030;49.478;8.986;2023-01-26T00:25:36;27.60;;;11.45;;
32611;SDS011;19030;49.478;8.986;2023-01-26T00:27:39;29.60;;;13.35;;
32611;SDS011;19030;49.478;8.986;2023-01-26T00:29:39;27.90;;;12.15;;
32611;SDS011;19030;49.478;8.986;2023-01-26T00:31:40;23.92;;;11.63;;
32611;SDS011;19030;49.478;8.986;2023-01-26T00:33:40;28.17;;;12.38;;
32611;SDS011;19030;49.478;8.986;2023-01-26T00:35:43;30.02;;;13.50;;
32611;SDS011;19030;49.478;8.986;2023-01-26T00:37:44;28.70;;;13.48;;
32611;SDS011;19030;49.478;8.986;2023-01-26T00:39:48;30.02;;;13.63;;
32611;SDS011;19030;49.478;8.986;2023-01-26T00:41:48;30.33;;;13.77;;
32611;SDS011;19030;49.478;8.986;2023-01-26T00:44:08;24.90;;;11.95;;
32611;SDS011;19030;49.478;8.986;2023-01-26T00:46:09;27.67;;;12.18;;
32611;SDS011;19030;49.478;8.986;2023-01-26T00:48:09;26.42;;;12.40;;
32611;SDS011;19030;49.478;8.986;2023-01-26T00:50:10;27.88;;;12.02;;
32611;SDS011;19030;49.478;8.986;2023-01-26T00:52:11;30.13;;;13.70;;
32611;SDS011;19030;49.478;8.986;2023-01-26T00:54:12;25.92;;;12.30;;
32611;SDS011;19030;49.478;8.986;2023-01-26T00:56:13;25.52;;;13.23;;
32611;SDS011;19030;49.478;8.986;2023-01-26T00:58:13;26.60;;;13.00;;
32611;SDS011;19030;49.478;8.986;2023-01-26T01:00:15;25.27;;;13.20;;
32611;SDS011;19030;49.478;8.986;2023-01-26T01:02:17;28.08;;;12.55;;
32611;SDS011;19030;49.478;8.986;2023-01-26T01:04:18;28.20;;;12.13;;
32611;SDS011;19030;49.478;8.986;2023-01-26T01:06:18;29.70;;;14.40;;
32611;SDS011;19030;49.478;8.986;2023-01-26T01:08:19;27.30;;;12.57;;
32611;SDS011;19030;49.478;8.986;2023-01-26T01:10:19;25.48;;;11.82;;
32611;SDS011;19030;49.478;8.986;2023-01-26T01:12:20;27.45;;;14.02;;
32611;SDS011;19030;49.478;8.986;2023-01-26T01:14:21;33.20;;;12.68;;
32611;SDS011;19030;49.478;8.986;2023-01-26T01:16:22;26.77;;;11.48;;
32611;SDS011;19030;49.478;8.986;2023-01-26T01:18:34;25.63;;;12.50;;
32611;SDS011;19030;49.478;8.986;2023-01-26T01:20:39;26.73;;;11.27;;
32611;SDS011;19030;49.478;8.986;2023-01-26T01:22:39;26.58;;;11.35;;
32611;SDS011;19030;49.478;8.986;2023-01-26T01:24:40;27.30;;;12.80;;
32611;SDS011;19030;49.478;8.986;2023-01-26T01:26:41;25.90;;;11.60;;
32611;SDS011;19030;49.478;8.986;2023-01-26T01:28:42;24.40;;;11.65;;
32611;SDS011;19030;49.478;8.986;2023-01-26T01:30:43;32.25;;;13.20;;
32611;SDS011;19030;49.478;8.986;2023-01-26T01:32:43;27.17;;;12.10;;
32611;SDS011;19030;49.478;8.986;2023-01-26T01:34:48;25.90;;;11.43;;
32611;SDS011;19030;49.478;8.986;2023-01-26T01:36:49;25.02;;;12.32;;
32611;SDS011;19030;49.478;8.986;2023-01-26T01:38:49;24.38;;;11.57;;
32611;SDS011;19030;49.478;8.986;2023-01-26T01:40:50;23.67;;;11.10;;
32611;SDS011;19030;49.478;8.986;2023-01-26T01:42:51;20.92;;;10.38;;
32611;SDS011;19030;49.478;8.986;2023-01-26T01:47:34;23.30;;;10.35;;
32611;SDS011;19030;49.478;8.986;2023-01-26T01:49:35;26.70;;;12.05;;
32611;SDS011;19030;49.478;8.986;2023-01-26T01:53:49;26.00;;;11.60;;
32611;SDS011;19030;49.478;8.986;2023-01-26T01:55:55;26.35;;;11.57;;
32611;SDS011;19030;49.478;8.986;2023-01-26T01:57:58;24.85;;;11.52;;
32611;SDS011;19030;49.478;8.986;2023-01-26T02:00:03;26.00;;;11.82;;
32611;SDS011;19030;49.478;8.986;2023-01-26T02:02:14;24.83;;;11.70;;
32611;SDS011;19030;49.478;8.986;2023-01-26T02:04:15;23.17;;;11.52;;
32611;SDS011;19030;49.478;8.986;2023-01-26T02:06:18;23.65;;;10.93;;
32611;SDS011;19030;49.478;8.986;2023-01-26T02:08:29;23.70;;;12.00;;
32611;SDS011;19030;49.478;8.986;2023-01-26T02:10:38;24.80;;;11.32;;
32611;SDS011;19030;49.478;8.986;2023-01-26T02:12:39;26.17;;;11.20;;
32611;SDS011;19030;49.478;8.986;2023-01-26T02:14:41;24.17;;;10.52;;
32611;SDS011;19030;49.478;8.986;2023-01-26T02:16:42;25.08;;;11.35;;
32611;SDS011;19030;49.478;8.986;2023-01-26T02:18:42;24.35;;;10.93;;
32611;SDS011;19030;49.478;8.986;2023-01-26T02:20:48;24.27;;;11.50;;
32611;SDS011;19030;49.478;8.986;2023-01-26T02:25:01;24.35;;;11.85;;
32611;SDS011;19030;49.478;8.986;2023-01-26T02:27:11;24.35;;;11.70;;
32611;SDS011;19030;49.478;8.986;2023-01-26T02:29:13;28.83;;;13.15;;
32611;SDS011;19030;49.478;8.986;2023-01-26T02:31:16;25.15;;;11.52;;
32611;SDS011;19030;49.478;8.986;2023-01-26T02:33:21;29.95;;;13.90;;
32611;SDS011;19030;49.478;8.986;2023-01-26T02:35:27;35.97;;;14.32;;
32611;SDS011;19030;49.478;8.986;2023-01-26T02:37:28;30.13;;;13.65;;
32611;SDS011;19030;49.478;8.986;2023-01-26T02:39:33;25.92;;;11.50;;
32611;SDS011;19030;49.478;8.986;2023-01-26T02:41:44;26.63;;;13.23;;
32611;SDS011;19030;49.478;8.986;2023-01-26T02:44:06;25.92;;;12.05;;
32611;SDS011;19030;49.478;8.986;2023-01-26T02:46:08;24.27;;;11.93;;
32611;SDS011;19030;49.478;8.986;2023-01-26T02:48:12;25.88;;;12.13;;
32611;SDS011;19030;49.478;8.986;2023-01-26T02:50:14;26.25;;;12.60;;
32611;SDS011;19030;49.478;8.986;2023-01-26T02:52:18;27.27;;;12.65;;
32611;SDS011;19030;49.478;8.986;2023-01-26T02:54:28;29.20;;;12.93;;
32611;SDS011;19030;49.478;8.986;2023-01-26T02:56:47;29.00;;;12.10;;
32611;SDS011;19030;49.478;8.986;2023-01-26T02:58:47;28.40;;;12.73;;
32611;SDS011;19030;49.478;8.986;2023-01-26T03:00:48;24.23;;;11.43;;
32611;SDS011;19030;49.478;8.986;2023-01-26T03:02:49;25.83;;;12.07;;
32611;SDS011;19030;49.478;8.986;2023-01-26T03:04:52;28.85;;;12.48;;
32611;SDS011;19030;49.478;8.986;2023-01-26T03:06:53;27.38;;;12.07;;
32611;SDS011;19030;49.478;8.986;2023-01-26T03:08:53;28.70;;;12.57;;
32611;SDS011;19030;49.478;8.986;2023-01-26T03:10:55;26.67;;;12.82;;
32611;SDS011;19030;49.478;8.986;2023-01-26T03:12:56;25.75;;;12.52;;
32611;SDS011;19030;49.478;8.986;2023-01-26T03:14:57;29.45;;;13.30;;
32611;SDS011;19030;49.478;8.986;2023-01-26T03:17:16;25.50;;;11.25;;
32611;SDS011;19030;49.478;8.986;2023-01-26T03:19:17;27.65;;;12.48;;
32611;SDS011;19030;49.478;8.986;2023-01-26T03:21:41;24.95;;;11.73;;
32611;SDS011;19030;49.478;8.986;2023-01-26T03:24:01;25.70;;;10.35;;
32611;SDS011;19030;49.478;8.986;2023-01-26T03:26:21;25.45;;;12.05;;
32611;SDS011;19030;49.478;8.986;2023-01-26T03:28:40;26.92;;;11.55;;
32611;SDS011;19030;49.478;8.986;2023-01-26T03:30:41;26.38;;;11.55;;
32611;SDS011;19030;49.478;8.986;2023-01-26T03:32:42;25.90;;;11.00;;
32611;SDS011;19030;49.478;8.986;2023-01-26T03:34:46;24.20;;;11.60;;
32611;SDS011;19030;49.478;8.986;2023-01-26T03:36:47;20.80;;;10.05;;
32611;SDS011;19030;49.478;8.986;2023-01-26T03:38:50;24.60;;;11.18;;
32611;SDS011;19030;49.478;8.986;2023-01-26T03:40:56;22.00;;;10.77;;
32611;SDS011;19030;49.478;8.986;2023-01-26T03:43:16;26.17;;;11.20;;
32611;SDS011;19030;49.478;8.986;2023-01-26T03:45:35;24.27;;;10.48;;
32611;SDS011;19030;49.478;8.986;2023-01-26T03:48:15;21.60;;;9.73;;
32611;SDS011;19030;49.478;8.986;2023-01-26T03:50:36;23.38;;;10.45;;
32611;SDS011;19030;49.478;8.986;2023-01-26T03:52:56;25.35;;;12.88;;
32611;SDS011;19030;49.478;8.986;2023-01-26T03:55:15;27.83;;;13.15;;
32611;SDS011;19030;49.478;8.986;2023-01-26T03:57:34;26.67;;;11.32;;
32611;SDS011;19030;49.478;8.986;2023-01-26T03:59:35;25.38;;;11.23;;
32611;SDS011;19030;49.478;8.986;2023-01-26T04:01:59;24.15;;;10.00;;
32611;SDS011;19030;49.478;8.986;2023-01-26T04:04:18;26.13;;;11.13;;
32611;SDS011;19030;49.478;8.986;2023-01-26T04:06:37;23.95;;;10.57;;
32611;SDS011;19030;49.478;8.986;2023-01-26T04:09:00;22.75;;;10.25;;
32611;SDS011;19030;49.478;8.986;2023-01-26T04:11:01;25.45;;;10.82;;
32611;SDS011;19030;49.478;8.986;2023-01-26T04:13:03;24.63;;;10.63;;
32611;SDS011;19030;49.478;8.986;2023-01-26T04:15:27;22.48;;;10.23;;
32611;SDS011;19030;49.478;8.986;2023-01-26T04:17:47;24.67;;;10.95;;
32611;SDS011;19030;49.478;8.986;2023-01-26T04:20:06;21.83;;;10.18;;
32611;SDS011;19030;49.478;8.986;2023-01-26T04:22:26;21.63;;;10.15;;
32611;SDS011;19030;49.478;8.986;2023-01-26T04:24:27;25.15;;;10.95;;
32611;SDS011;19030;49.478;8.986;2023-01-26T04:26:30;26.90;;;11.23;;
32611;SDS011;19030;49.478;8.986;2023-01-26T04:28:34;23.15;;;10.13;;
32611;SDS011;19030;49.478;8.986;2023-01-26T04:30:35;23.38;;;10.50;;
32611;SDS011;19030;49.478;8.986;2023-01-26T04:32:36;26.58;;;10.55;;
32611;SDS011;19030;49.478;8.986;2023-01-26T04:34:36;26.33;;;11.55;;
32611;SDS011;19030;49.478;8.986;2023-01-26T04:36:45;23.02;;;11.25;;
32611;SDS011;19030;49.478;8.986;2023-01-26T04:38:47;24.77;;;11.10;;
32611;SDS011;19030;49.478;8.986;2023-01-26T04:40:52;25.48;;;11.20;;
32611;SDS011;19030;49.478;8.986;2023-01-26T04:42:54;24.95;;;10.85;;
32611;SDS011;19030;49.478;8.986;2023-01-26T04:44:54;26.70;;;12.20;;
32611;SDS011;19030;49.478;8.986;2023-01-26T04:46:56;28.90;;;12.85;;
32611;SDS011;19030;49.478;8.986;2023-01-26T04:49:17;24.88;;;11.65;;
32611;SDS011;19030;49.478;8.986;2023-01-26T04:51:36;30.75;;;12.55;;
32611;SDS011;19030;49.478;8.986;2023-01-26T04:53:36;25.23;;;12.23;;
32611;SDS011;19030;49.478;8.986;2023-01-26T04:55:37;26.77;;;12.70;;
32611;SDS011;19030;49.478;8.986;2023-01-26T04:57:38;26.75;;;12.07;;
32611;SDS011;19030;49.478;8.986;2023-01-26T04:59:39;29.42;;;13.02;;
32611;SDS011;19030;49.478;8.986;2023-01-26T05:01:40;29.63;;;12.80;;
32611;SDS011;19030;49.478;8.986;2023-01-26T05:03:41;27.08;;;12.45;;
32611;SDS011;19030;49.478;8.986;2023-01-26T05:05:42;27.73;;;12.32;;
32611;SDS011;19030;49.478;8.986;2023-01-26T05:07:43;29.05;;;13.50;;
32611;SDS011;19030;49.478;8.986;2023-01-26T05:09:45;30.88;;;12.70;;
32611;SDS011;19030;49.478;8.986;2023-01-26T05:12:04;31.40;;;13.27;;
32611;SDS011;19030;49.478;8.986;2023-01-26T05:14:56;30.77;;;14.20;;
32611;SDS011;19030;49.478;8.986;2023-01-26T05:17:17;28.67;;;11.43;;
32611;SDS011;19030;49.478;8.986;2023-01-26T05:19:40;29.92;;;12.88;;
32611;SDS011;19030;49.478;8.986;2023-01-26T05:21:53;27.95;;;12.65;;
32611;SDS011;19030;49.478;8.986;2023-01-26T05:23:55;33.25;;;13.98;;
32611;SDS011;19030;49.478;8.986;2023-01-26T05:26:14;27.85;;;13.70;;
32611;SDS011;19030;49.478;8.986;2023-01-26T05:28:36;27.88;;;12.50;;
32611;SDS011;19030;49.478;8.986;2023-01-26T05:30:37;30.15;;;12.95;;
32611;SDS011;19030;49.478;8.986;2023-01-26T05:32:38;25.35;;;11.93;;
32611;SDS011;19030;49.478;8.986;2023-01-26T05:34:39;27.08;;;13.02;;
32611;SDS011;19030;49.478;8.986;2023-01-26T05:36:40;28.27;;;11.60;;
32611;SDS011;19030;49.478;8.986;2023-01-26T05:38:41;26.40;;;12.18;;
32611;SDS011;19030;49.478;8.986;2023-01-26T05:40:41;26.90;;;12.65;;
32611;SDS011;19030;49.478;8.986;2023-01-26T05:42:42;30.88;;;12.82;;
32611;SDS011;19030;49.478;8.986;2023-01-26T05:44:52;31.80;;;13.60;;
32611;SDS011;19030;49.478;8.986;2023-01-26T05:46:55;28.25;;;12.52;;
32611;SDS011;19030;49.478;8.986;2023-01-26T05:48:55;30.08;;;13.30;;
32611;SDS011;19030;49.478;8.986;2023-01-26T05:50:56;29.55;;;14.57;;
32611;SDS011;19030;49.478;8.986;2023-01-26T05:52:57;40.92;;;16.05;;
32611;SDS011;19030;49.478;8.986;2023-01-26T05:54:59;28.92;;;12.43;;
32611;SDS011;19030;49.478;8.986;2023-01-26T05:57:01;32.97;;;14.80;;
32611;SDS011;19030;49.478;8.986;2023-01-26T05:59:02;29.67;;;12.40;;
32611;SDS011;19030;49.478;8.986;2023-01-26T06:01:04;32.20;;;14.23;;
32611;SDS011;19030;49.478;8.986;2023-01-26T06:03:12;31.63;;;14.32;;
32611;SDS011;19030;49.478;8.986;2023-01-26T06:05:12;32.72;;;15.07;;
32611;SDS011;19030;49.478;8.986;2023-01-26T06:07:15;33.03;;;15.30;;
32611;SDS011;19030;49.478;8.986;2023-01-26T06:09:23;31.80;;;15.43;;
32611;SDS011;19030;49.478;8.986;2023-01-26T06:11:37;35.78;;;13.05;;
32611;SDS011;19030;49.478;8.986;2023-01-26T06:13:45;28.45;;;12.32;;
32611;SDS011;19030;49.478;8.986;2023-01-26T06:15:54;30.58;;;12.90;;
32611;SDS011;19030;49.478;8.986;2023-01-26T06:17:59;32.97;;;13.57;;
32611;SDS011;19030;49.478;8.986;2023-01-26T06:20:00;28.50;;;12.75;;
32611;SDS011;19030;49.478;8.986;2023-01-26T06:22:07;31.70;;;13.15;;
32611;SDS011;19030;49.478;8.986;2023-01-26T06:24:13;28.27;;;12.77;;
32611;SDS011;19030;49.478;8.986;2023-01-26T06:26:14;30.45;;;13.45;;
32611;SDS011;19030;49.478;8.986;2023-01-26T06:28:15;23.67;;;10.95;;
32611;SDS011;19030;49.478;8.986;2023-01-26T06:30:16;28.75;;;12.45;;
32611;SDS011;19030;49.478;8.986;2023-01-26T06:32:17;25.17;;;10.75;;
32611;SDS011;19030;49.478;8.986;2023-01-26T06:34:21;27.33;;;12.30;;
32611;SDS011;19030;49.478;8.986;2023-01-26T06:36:22;27.45;;;11.63;;
32611;SDS011;19030;49.478;8.986;2023-01-26T06:38:23;29.08;;;13.13;;
32611;SDS011;19030;49.478;8.986;2023-01-26T06:40:24;27.38;;;12.02;;
32611;SDS011;19030;49.478;8.986;2023-01-26T06:42:24;31.23;;;12.80;;
32611;SDS011;19030;49.478;8.986;2023-01-26T06:44:25;24.42;;;11.52;;
32611;SDS011;19030;49.478;8.986;2023-01-26T06:46:25;25.42;;;11.30;;
32611;SDS011;19030;49.478;8.986;2023-01-26T06:48:29;27.23;;;13.05;;
32611;SDS011;19030;49.478;8.986;2023-01-26T06:50:32;32.95;;;12.80;;
32611;SDS011;19030;49.478;8.986;2023-01-26T06:52:34;28.55;;;11.65;;
32611;SDS011;19030;49.478;8.986;2023-01-26T06:54:41;28.90;;;11.75;;
32611;SDS011;19030;49.478;8.986;2023-01-26T06:56:54;25.42;;;11.88;;
32611;SDS011;19030;49.478;8.986;2023-01-26T06:59:15;25.75;;;11.13;;
32611;SDS011;19030;49.478;8.986;2023-01-26T07:01:43;24.38;;;11.30;;
32611;SDS011;19030;49.478;8.986;2023-01-26T07:03:46;23.70;;;10.68;;
32611;SDS011;19030;49.478;8.986;2023-01-26T07:05:47;26.35;;;11.15;;
32611;SDS011;19030;49.478;8.986;2023-01-26T07:07:48;29.02;;;11.88;;
32611;SDS011;19030;49.478;8.986;2023-01-26T07:09:48;28.15;;;12.00;;
32611;SDS011;19030;49.478;8.986;2023-01-26T07:11:49;28.88;;;12.60;;
32611;SDS011;19030;49.478;8.986;2023-01-26T07:13:50;27.08;;;12.30;;
32611;SDS011;19030;49.478;8.986;2023-01-26T07:15:51;28.55;;;11.63;;
32611;SDS011;19030;49.478;8.986;2023-01-26T07:17:51;28.92;;;12.32;;
32611;SDS011;19030;49.478;8.986;2023-01-26T07:19:53;29.90;;;13.95;;
32611;SDS011;19030;49.478;8.986;2023-01-26T07:21:54;28.88;;;12.95;;
32611;SDS011;19030;49.478;8.986;2023-01-26T07:23:54;26.27;;;12.55;;
32611;SDS011;19030;49.478;8.986;2023-01-26T07:25:55;26.17;;;11.77;;
32611;SDS011;19030;49.478;8.986;2023-01-26T07:27:56;25.23;;;11.52;;
32611;SDS011;19030;49.478;8.986;2023-01-26T07:29:57;26.77;;;11.68;;
32611;SDS011;19030;49.478;8.986;2023-01-26T07:31:58;26.27;;;11.45;;
32611;SDS011;19030;49.478;8.986;2023-01-26T07:33:58;28.15;;;12.55;;
32611;SDS011;19030;49.478;8.986;2023-01-26T07:35:59;25.45;;;11.60;;
32611;SDS011;19030;49.478;8.986;2023-01-26T07:38:02;23.65;;;11.00;;
32611;SDS011;19030;49.478;8.986;2023-01-26T07:40:03;26.63;;;12.55;;
32611;SDS011;19030;49.478;8.986;2023-01-26T07:42:04;25.20;;;11.40;;
32611;SDS011;19030;49.478;8.986;2023-01-26T07:44:30;27.38;;;11.82;;
32611;SDS011;19030;49.478;8.986;2023-01-26T07:46:31;27.52;;;11.43;;
32611;SDS011;19030;49.478;8.986;2023-01-26T07:48:31;26.15;;;10.98;;
32611;SDS011;19030;49.478;8.986;2023-01-26T07:50:33;26.20;;;10.73;;
32611;SDS011;19030;49.478;8.986;2023-01-26T07:52:33;26.30;;;11.40;;
32611;SDS011;19030;49.478;8.986;2023-01-26T07:54:34;26.88;;;11.85;;
32611;SDS011;19030;49.478;8.986;2023-01-26T07:56:34;24.52;;;11.35;;
32611;SDS011;19030;49.478;8.986;2023-01-26T07:58:35;25.40;;;11.65;;
32611;SDS011;19030;49.478;8.986;2023-01-26T08:00:36;23.25;;;9.82;;
32611;SDS011;19030;49.478;8.986;2023-01-26T08:02:36;23.40;;;11.07;;
32611;SDS011;19030;49.478;8.986;2023-01-26T08:04:37;26.08;;;11.57;;
32611;SDS011;19030;49.478;8.986;2023-01-26T08:06:38;23.08;;;10.80;;
32611;SDS011;19030;49.478;8.986;2023-01-26T08:08:38;26.88;;;11.07;;
32611;SDS011;19030;49.478;8.986;2023-01-26T08:10:40;21.13;;;10.05;;
32611;SDS011;19030;49.478;8.986;2023-01-26T08:12:40;27.27;;;10.70;;
32611;SDS011;19030;49.478;8.986;2023-01-26T08:14:41;23.55;;;11.02;;
32611;SDS011;19030;49.478;8.986;2023-01-26T08:16:41;26.42;;;10.52;;
32611;SDS011;19030;49.478;8.986;2023-01-26T08:18:44;24.58;;;11.50;;
32611;SDS011;19030;49.478;8.986;2023-01-26T08:20:49;26.00;;;11.18;;
32611;SDS011;19030;49.478;8.986;2023-01-26T08:22:53;26.75;;;10.57;;
32611;SDS011;19030;49.478;8.986;2023-01-26T08:24:54;22.40;;;11.07;;
32611;SDS011;19030;49.478;8.986;2023-01-26T08:26:54;22.38;;;10.10;;
32611;SDS011;19030;49.478;8.986;2023-01-26T08:28:55;23.17;;;11.25;;
32611;SDS011;19030;49.478;8.986;2023-01-26T08:30:56;25.75;;;11.98;;
32611;SDS011;19030;49.478;8.986;2023-01-26T08:35:03;24.73;;;11.18;;
32611;SDS011;19030;49.478;8.986;2023-01-26T08:37:04;24.42;;;10.55;;
32611;SDS011;19030;49.478;8.986;2023-01-26T08:39:04;22.23;;;9.40;;
32611;SDS011;19030;49.478;8.986;2023-01-26T08:41:05;20.48;;;10.05;;
32611;SDS011;19030;49.478;8.986;2023-01-26T08:43:06;21.80;;;10.20;;
32611;SDS011;19030;49.478;8.986;2023-01-26T08:45:07;21.15;;;9.57;;
32611;SDS011;19030;49.478;8.986;2023-01-26T08:47:07;23.40;;;10.75;;
32611;SDS011;19030;49.478;8.986;2023-01-26T08:49:08;20.77;;;9.68;;
32611;SDS011;19030;49.478;8.986;2023-01-26T08:51:09;22.20;;;10.23;;
32611;SDS011;19030;49.478;8.986;2023-01-26T08:53:09;24.30;;;10.68;;
32611;SDS011;19030;49.478;8.986;2023-01-26T08:55:10;23.60;;;10.40;;
32611;SDS011;19030;49.478;8.986;2023-01-26T08:57:10;25.67;;;11.15;;
32611;SDS011;19030;49.478;8.986;2023-01-26T08:59:11;19.40;;;8.75;;
32611;SDS011;19030;49.478;8.986;2023-01-26T09:01:13;19.17;;;8.75;;
32611;SDS011;19030;49.478;8.986;2023-01-26T09:03:14;20.83;;;9.85;;
32611;SDS011;19030;49.478;8.986;2023-01-26T09:05:15;24.67;;;10.35;;
32611;SDS011;19030;49.478;8.986;2023-01-26T09:07:16;24.00;;;9.85;;
32611;SDS011;19030;49.478;8.986;2023-01-26T09:09:16;19.30;;;9.40;;
32611;SDS011;19030;49.478;8.986;2023-01-26T09:11:17;20.77;;;9.60;;
32611;SDS011;19030;49.478;8.986;2023-01-26T09:13:17;22.13;;;10.93;;
32611;SDS011;19030;49.478;8.986;2023-01-26T09:15:18;19.25;;;9.18;;
32611;SDS011;19030;49.478;8.986;2023-01-26T09:17:18;19.92;;;8.68;;
32611;SDS011;19030;49.478;8.986;2023-01-26T09:19:19;21.20;;;9.65;;
32611;SDS011;19030;49.478;8.986;2023-01-26T09:21:19;21.45;;;9.30;;
32611;SDS011;19030;49.478;8.986;2023-01-26T09:23:22;21.20;;;9.32;;
32611;SDS011;19030;49.478;8.986;2023-01-26T09:25:23;21.60;;;9.93;;
32611;SDS011;19030;49.478;8.986;2023-01-26T09:27:24;21.42;;;11.48;;
32611;SDS011;19030;49.478;8.986;2023-01-26T09:29:24;19.17;;;8.77;;
32611;SDS011;19030;49.478;8.986;2023-01-26T09:31:25;19.15;;;9.70;;
32611;SDS011;19030;49.478;8.986;2023-01-26T09:33:25;20.17;;;8.88;;
32611;SDS011;19030;49.478;8.986;2023-01-26T09:35:26;20.80;;;8.13;;
32611;SDS011;19030;49.478;8.986;2023-01-26T09:37:27;16.77;;;8.82;;
32611;SDS011;19030;49.478;8.986;2023-01-26T09:39:28;17.73;;;8.60;;
32611;SDS011;19030;49.478;8.986;2023-01-26T09:41:35;15.77;;;8.10;;
32611;SDS011;19030;49.478;8.986;2023-01-26T09:43:51;17.10;;;7.93;;
32611;SDS011;19030;49.478;8.986;2023-01-26T09:48:11;17.35;;;8.25;;
32611;SDS011;19030;49.478;8.986;2023-01-26T09:50:25;16.52;;;7.90;;
32611;SDS011;19030;49.478;8.986;2023-01-26T09:52:32;16.02;;;7.70;;
32611;SDS011;19030;49.478;8.986;2023-01-26T09:54:38;19.20;;;7.85;;
32611;SDS011;19030;49.478;8.986;2023-01-26T09:56:44;18.25;;;7.90;;
32611;SDS011;19030;49.478;8.986;2023-01-26T09:58:46;15.57;;;7.78;;
32611;SDS011;19030;49.478;8.986;2023-01-26T10:00:57;18.25;;;7.70;;
32611;SDS011;19030;49.478;8.986;2023-01-26T10:03:13;16.88;;;7.45;;
32611;SDS011;19030;49.478;8.986;2023-01-26T10:07:35;14.90;;;7.63;;
32611;SDS011;19030;49.478;8.986;2023-01-26T10:09:37;16.52;;;6.65;;
32611;SDS011;19030;49.478;8.986;2023-01-26T10:11:40;14.02;;;6.88;;
32611;SDS011;19030;49.478;8.986;2023-01-26T10:13:47;15.43;;;6.85;;
32611;SDS011;19030;49.478;8.986;2023-01-26T10:15:56;18.38;;;6.97;;
32611;SDS011;19030;49.478;8.986;2023-01-26T10:18:05;13.88;;;6.28;;
32611;SDS011;19030;49.478;8.986;2023-01-26T10:22:44;14.27;;;6.70;;
32611;SDS011;19030;49.478;8.986;2023-01-26T10:24:51;14.00;;;6.65;;
32611;SDS011;19030;49.478;8.986;2023-01-26T10:26:56;13.35;;;6.15;;
32611;SDS011;19030;49.478;8.986;2023-01-26T10:28:58;14.13;;;6.43;;
32611;SDS011;19030;49.478;8.986;2023-01-26T10:31:01;14.38;;;6.47;;
32611;SDS011;19030;49.478;8.986;2023-01-26T10:33:04;12.25;;;5.78;;
32611;SDS011;19030;49.478;8.986;2023-01-26T10:35:24;11.98;;;6.28;;
32611;SDS011;19030;49.478;8.986;2023-01-26T10:37:28;13.82;;;6.43;;
32611;SDS011;19030;49.478;8.986;2023-01-26T10:39:29;13.23;;;6.13;;
32611;SDS011;19030;49.478;8.986;2023-01-26T10:41:30;12.63;;;6.43;;
32611;SDS011;19030;49.478;8.986;2023-01-26T10:43:32;12.85;;;6.47;;
32611;SDS011;19030;49.478;8.986;2023-01-26T10:45:42;12.95;;;6.75;;
32611;SDS011;19030;49.478;8.986;2023-01-26T10:47:51;13.13;;;6.30;;
32611;SDS011;19030;49.478;8.986;2023-01-26T10:50:23;15.48;;;6.78;;
32611;SDS011;19030;49.478;8.986;2023-01-26T10:52:24;20.23;;;10.70;;
32611;SDS011;19030;49.478;8.986;2023-01-26T10:54:25;15.45;;;6.43;;
32611;SDS011;19030;49.478;8.986;2023-01-26T10:56:27;15.38;;;7.03;;
32611;SDS011;19030;49.478;8.986;2023-01-26T10:58:40;12.60;;;6.45;;
32611;SDS011;19030;49.478;8.986;2023-01-26T11:00:54;11.93;;;5.82;;
32611;SDS011;19030;49.478;8.986;2023-01-26T11:07:24;14.27;;;6.68;;
32611;SDS011;19030;49.478;8.986;2023-01-26T11:09:27;13.40;;;6.03;;
32611;SDS011;19030;49.478;8.986;2023-01-26T11:11:30;11.63;;;5.88;;
32611;SDS011;19030;49.478;8.986;2023-01-26T11:13:31;15.63;;;6.75;;
32611;SDS011;19030;49.478;8.986;2023-01-26T11:15:34;13.30;;;6.68;;
32611;SDS011;19030;49.478;8.986;2023-01-26T11:17:41;14.45;;;6.97;;
32611;SDS011;19030;49.478;8.986;2023-01-26T11:22:21;14.10;;;6.70;;
32611;SDS011;19030;49.478;8.986;2023-01-26T11:24:24;13.15;;;6.57;;
32611;SDS011;19030;49.478;8.986;2023-01-26T11:34:03;15.43;;;6.97;;
32611;SDS011;19030;49.478;8.986;2023-01-26T11:43:03;12.88;;;6.22;;
32611;SDS011;19030;49.478;8.986;2023-01-26T11:45:26;12.27;;;6.53;;
32611;SDS011;19030;49.478;8.986;2023-01-26T11:56:53;12.90;;;7.18;;
32611;SDS011;19030;49.478;8.986;2023-01-26T11:59:12;19.27;;;9.45;;
32611;SDS011;19030;49.478;8.986;2023-01-26T12:05:44;45.35;;;17.38;;
32611;SDS011;19030;49.478;8.986;2023-01-26T12:07:56;11.97;;;5.83;;
32611;SDS011;19030;49.478;8.986;2023-01-26T12:10:03;11.02;;;5.93;;
32611;SDS011;19030;49.478;8.986;2023-01-26T12:12:10;11.38;;;5.65;;
32611;SDS011;19030;49.478;8.986;2023-01-26T12:17:14;11.07;;;4.93;;
32611;SDS011;19030;49.478;8.986;2023-01-26T12:21:52;12.70;;;5.90;;
32611;SDS011;19030;49.478;8.986;2023-01-26T12:24:00;11.32;;;5.82;;
32611;SDS011;19030;49.478;8.986;2023-01-26T12:26:06;10.32;;;4.85;;
32611;SDS011;19030;49.478;8.986;2023-01-26T12:28:19;28.33;;;12.05;;
32611;SDS011;19030;49.478;8.986;2023-01-26T12:30:36;92.78;;;35.90;;
32611;SDS011;19030;49.478;8.986;2023-01-26T12:32:40;21.75;;;10.90;;
32611;SDS011;19030;49.478;8.986;2023-01-26T12:34:41;10.90;;;5.38;;
32611;SDS011;19030;49.478;8.986;2023-01-26T12:39:15;11.05;;;5.35;;
32611;SDS011;19030;49.478;8.986;2023-01-26T12:41:34;9.70;;;5.13;;
32611;SDS011;19030;49.478;8.986;2023-01-26T12:46:07;10.07;;;4.93;;
32611;SDS011;19030;49.478;8.986;2023-01-26T12:48:13;10.95;;;6.25;;
32611;SDS011;19030;49.478;8.986;2023-01-26T12:52:58;9.48;;;5.10;;
32611;SDS011;19030;49.478;8.986;2023-01-26T12:55:29;9.85;;;4.68;;
32611;SDS011;19030;49.478;8.986;2023-01-26T12:57:35;9.18;;;4.78;;
32611;SDS011;19030;49.478;8.986;2023-01-26T12:59:41;10.13;;;5.00;;
32611;SDS011;19030;49.478;8.986;2023-01-26T13:01:43;9.48;;;4.50;;
32611;SDS011;19030;49.478;8.986;2023-01-26T13:05:59;9.23;;;4.68;;
32611;SDS011;19030;49.478;8.986;2023-01-26T13:10:41;11.60;;;5.72;;
32611;SDS011;19030;49.478;8.986;2023-01-26T13:14:57;10.90;;;5.78;;
32611;SDS011;19030;49.478;8.986;2023-01-26T13:23:44;9.55;;;5.05;;
32611;SDS011;19030;49.478;8.986;2023-01-26T13:25:47;9.90;;;4.68;;
32611;SDS011;19030;49.478;8.986;2023-01-26T13:28:11;8.55;;;4.35;;
32611;SDS011;19030;49.478;8.986;2023-01-26T13:36:38;13.90;;;6.68;;
32611;SDS011;19030;49.478;8.986;2023-01-26T13:38:43;11.50;;;6.57;;
32611;SDS011;19030;49.478;8.986;2023-01-26T13:40:50;11.85;;;6.32;;